Time;durP1;ratioP1;P1;durP2;ratioP2;P2;SDS_P1;SDS_P2;PMS_P1;PMS_P2;Temp;Humidity;BMP_temperature;BMP_pressure;BME280_temperature;BME280_humidity;BME280_pressure;Samples;Min_cycle;Max_cycle;Signal;HPM_P1;HPM_P2
2022/06/29 00:00:24;;;;;;;2.00;1.30;;;;;;;;;;5156744;27;20026;-76
2022/06/29 00:02:50;;;;;;;2.58;1.42;;;;;;;;;;5155664;27;20083;-76
2022/06/29 00:05:18;;;;;;;2.55;1.35;;;;;;;;;;5138002;27;20034;-76
2022/06/29 00:07:44;;;;;;;2.40;1.33;;;;;;;;;;5155425;27;20035;-76
2022/06/29 00:10:12;;;;;;;3.03;1.50;;;;;;;;;;5118169;27;20046;-76
2022/06/29 00:12:38;;;;;;;3.08;1.42;;;;;;;;;;5115049;28;20031;-76
2022/06/29 00:15:05;;;;;;;4.90;1.55;;;;;;;;;;5113853;28;20032;-76
2022/06/29 00:17:33;;;;;;;3.78;2.58;;;;;;;;;;5096525;28;20028;-76
2022/06/29 00:20:00;;;;;;;5.53;1.60;;;;;;;;;;5113718;28;20077;-76
2022/06/29 00:22:28;;;;;;;5.13;2.50;;;;;;;;;;5114970;28;20092;-77
2022/06/29 00:24:54;;;;;;;3.67;1.55;;;;;;;;;;5113651;28;20039;-76
2022/06/29 00:27:21;;;;;;;2.50;1.60;;;;;;;;;;5114890;28;20031;-76
2022/06/29 00:29:47;;;;;;;3.40;1.23;;;;;;;;;;5113612;28;20047;-76
2022/06/29 00:32:13;;;;;;;2.60;1.50;;;;;;;;;;5113764;28;20053;-76
2022/06/29 00:34:39;;;;;;;3.03;1.55;;;;;;;;;;5114795;28;20032;-76
2022/06/29 00:37:05;;;;;;;2.03;1.30;;;;;;;;;;5113209;28;20079;-76
2022/06/29 00:39:32;;;;;;;2.83;1.52;;;;;;;;;;5127940;27;20484;-76
2022/06/29 00:41:58;;;;;;;2.72;1.48;;;;;;;;;;5133999;27;20121;-76
2022/06/29 00:44:24;;;;;;;1.48;1.35;;;;;;;;;;5135279;27;20488;-76
2022/06/29 00:46:53;;;;;;;2.25;1.58;;;;;;;;;;5116645;27;20035;-76
2022/06/29 00:49:22;;;;;;;2.08;1.25;;;;;;;;;;5133985;27;20031;-76
2022/06/29 00:52:01;;;;;;;2.50;1.55;;;;;;;;;;5134178;27;20043;-76
2022/06/29 00:54:31;;;;;;;3.55;1.45;;;;;;;;;;5133555;27;20075;-76
2022/06/29 00:57:01;;;;;;;8.13;2.38;;;;;;;;;;5116636;27;20511;-76
2022/06/29 00:59:28;;;;;;;2.78;1.50;;;;;;;;;;5133303;27;20080;-76
2022/06/29 01:01:54;;;;;;;2.30;1.52;;;;;;;;;;5134987;27;20027;-76
2022/06/29 01:04:19;;;;;;;13.20;1.50;;;;;;;;;;5133883;27;20502;-76
2022/06/29 01:06:45;;;;;;;3.15;1.48;;;;;;;;;;5133983;27;20042;-76
2022/06/29 01:09:10;;;;;;;2.63;1.83;;;;;;;;;;5132905;27;20038;-76
2022/06/29 01:11:37;;;;;;;8.98;1.58;;;;;;;;;;5133652;27;20049;-76
2022/06/29 01:14:03;;;;;;;5.60;1.70;;;;;;;;;;5133651;27;20498;-76
2022/06/29 01:16:29;;;;;;;2.55;1.50;;;;;;;;;;5116187;27;20033;-76
2022/06/29 01:18:55;;;;;;;4.53;1.80;;;;;;;;;;5133535;27;20042;-76
2022/06/29 01:21:22;;;;;;;3.10;1.60;;;;;;;;;;5133349;27;20035;-76
2022/06/29 01:23:48;;;;;;;2.80;1.50;;;;;;;;;;5133304;27;20088;-76
2022/06/29 01:26:14;;;;;;;6.30;1.42;;;;;;;;;;5133367;27;20031;-76
2022/06/29 01:28:46;;;;;;;4.65;1.60;;;;;;;;;;5133108;27;20537;-76
2022/06/29 01:31:16;;;;;;;2.25;1.52;;;;;;;;;;5115490;27;20049;-76
2022/06/29 01:33:43;;;;;;;2.22;1.30;;;;;;;;;;5133383;27;20031;-76
2022/06/29 01:36:08;;;;;;;2.97;1.50;;;;;;;;;;5133684;27;20077;-77
2022/06/29 01:38:36;;;;;;;3.35;1.60;;;;;;;;;;5115751;27;20070;-76
2022/06/29 01:41:04;;;;;;;3.50;1.23;;;;;;;;;;5133210;27;20094;-76
2022/06/29 01:43:31;;;;;;;2.17;1.17;;;;;;;;;;5133299;27;20035;-76
2022/06/29 01:45:56;;;;;;;4.20;2.05;;;;;;;;;;5134256;27;20039;-76
2022/06/29 01:48:22;;;;;;;5.88;1.88;;;;;;;;;;5115828;27;20031;-76
2022/06/29 01:50:49;;;;;;;2.28;1.67;;;;;;;;;;5133355;28;20071;-76
2022/06/29 01:53:15;;;;;;;3.45;1.60;;;;;;;;;;5132912;27;20035;-76
2022/06/29 01:55:43;;;;;;;2.45;1.40;;;;;;;;;;5134117;27;20088;-76
2022/06/29 01:58:08;;;;;;;3.13;1.58;;;;;;;;;;5115845;28;20400;-76
2022/06/29 02:00:34;;;;;;;2.50;1.50;;;;;;;;;;5134627;27;20035;-76
2022/06/29 02:03:01;;;;;;;5.68;2.22;;;;;;;;;;5133015;28;20096;-76
2022/06/29 02:05:27;;;;;;;3.33;1.42;;;;;;;;;;5123770;28;20500;-76
2022/06/29 02:07:52;;;;;;;2.95;1.50;;;;;;;;;;5126812;27;20031;-76
2022/06/29 02:10:18;;;;;;;4.35;1.30;;;;;;;;;;5135622;27;20080;-76
2022/06/29 02:12:43;;;;;;;3.10;1.60;;;;;;;;;;5138469;27;20046;-77
2022/06/29 02:15:09;;;;;;;2.95;1.55;;;;;;;;;;5121267;27;20027;-78
2022/06/29 02:17:34;;;;;;;3.13;1.55;;;;;;;;;;5137426;27;20396;-77
2022/06/29 02:20:00;;;;;;;3.05;1.50;;;;;;;;;;5119674;27;20088;-78
2022/06/29 02:22:25;;;;;;;5.97;1.60;;;;;;;;;;5119696;27;20122;-78
2022/06/29 02:24:51;;;;;;;3.42;1.40;;;;;;;;;;5119495;27;20027;-78
2022/06/29 02:27:17;;;;;;;4.95;1.63;;;;;;;;;;5136797;27;20472;-78
2022/06/29 02:29:42;;;;;;;3.53;1.58;;;;;;;;;;5136238;27;20035;-77
2022/06/29 02:34:52;;;;;;;4.28;1.70;;;;;;;;;;5137657;27;20035;-77
2022/06/29 02:37:19;;;;;;;2.30;1.70;;;;;;;;;;5118512;27;20043;-77
2022/06/29 02:39:45;;;;;;;2.72;1.42;;;;;;;;;;5119261;27;20088;-76
2022/06/29 02:42:11;;;;;;;5.47;1.20;;;;;;;;;;5119056;27;20035;-76
2022/06/29 02:44:41;;;;;;;4.05;1.40;;;;;;;;;;5136273;27;20476;-77
2022/06/29 02:47:09;;;;;;;2.03;1.52;;;;;;;;;;5137677;27;20038;-77
2022/06/29 02:49:34;;;;;;;4.75;1.45;;;;;;;;;;5136718;27;20426;-78
2022/06/29 02:52:00;;;;;;;3.42;1.50;;;;;;;;;;5139968;27;20053;-79
2022/06/29 02:54:26;;;;;;;1.58;1.48;;;;;;;;;;5139014;27;20072;-79
2022/06/29 02:56:55;;;;;;;2.70;1.25;;;;;;;;;;5143916;27;20528;-80
2022/06/29 02:59:22;;;;;;;2.85;1.40;;;;;;;;;;5141777;27;20031;-79
2022/06/29 03:01:48;;;;;;;3.90;1.50;;;;;;;;;;5123750;27;20039;-79
2022/06/29 03:04:13;;;;;;;3.28;1.35;;;;;;;;;;5139826;27;20035;-78
2022/06/29 03:06:40;;;;;;;2.13;1.42;;;;;;;;;;5139697;27;20480;-78
2022/06/29 03:09:06;;;;;;;4.68;1.70;;;;;;;;;;5158790;27;20026;-78
2022/06/29 03:11:31;;;;;;;4.32;1.92;;;;;;;;;;5136216;27;20472;-79
2022/06/29 03:13:57;;;;;;;2.53;1.27;;;;;;;;;;5120845;27;20484;-79
2022/06/29 03:16:22;;;;;;;2.22;1.65;;;;;;;;;;5120935;27;20098;-79
2022/06/29 03:18:51;;;;;;;4.30;1.88;;;;;;;;;;5121254;27;20035;-79
2022/06/29 03:21:17;;;;;;;1.92;1.27;;;;;;;;;;5120161;27;20031;-79
2022/06/29 03:23:44;;;;;;;5.32;1.70;;;;;;;;;;5137627;27;20038;-79
2022/06/29 03:26:11;;;;;;;3.97;1.73;;;;;;;;;;5121198;27;20498;-78
2022/06/29 03:28:36;;;;;;;9.60;1.70;;;;;;;;;;5138003;27;20035;-79
2022/06/29 03:31:04;;;;;;;7.95;1.55;;;;;;;;;;5120971;27;20045;-79
2022/06/29 03:33:30;;;;;;;7.32;1.80;;;;;;;;;;5139478;27;20049;-79
2022/06/29 03:35:56;;;;;;;6.03;1.90;;;;;;;;;;5136949;27;20468;-79
2022/06/29 03:38:22;;;;;;;6.07;1.88;;;;;;;;;;5137844;27;20620;-79
2022/06/29 03:40:51;;;;;;;1.83;1.30;;;;;;;;;;5120748;27;20062;-79
2022/06/29 03:43:17;;;;;;;6.72;1.92;;;;;;;;;;5119512;27;20488;-78
2022/06/29 03:45:42;;;;;;;3.65;1.67;;;;;;;;;;5136300;27;20042;-78
2022/06/29 03:48:10;;;;;;;4.40;1.88;;;;;;;;;;5137695;27;20075;-78
2022/06/29 03:50:37;;;;;;;6.30;1.80;;;;;;;;;;5137688;27;20054;-78
2022/06/29 03:53:02;;;;;;;6.30;1.70;;;;;;;;;;5118757;27;20031;-78
2022/06/29 03:55:29;;;;;;;6.93;1.65;;;;;;;;;;5137302;27;20121;-79
2022/06/29 03:57:55;;;;;;;5.57;2.00;;;;;;;;;;5137432;27;20510;-79
2022/06/29 04:00:21;;;;;;;8.90;1.95;;;;;;;;;;5120645;27;20050;-79
2022/06/29 04:02:47;;;;;;;2.78;1.40;;;;;;;;;;5139076;27;20035;-79
2022/06/29 04:05:15;;;;;;;1.67;1.50;;;;;;;;;;5117925;27;20480;-78
2022/06/29 04:07:41;;;;;;;5.72;1.73;;;;;;;;;;5116508;28;20031;-78
2022/06/29 04:10:07;;;;;;;7.90;1.83;;;;;;;;;;5115729;27;20038;-78
2022/06/29 04:12:35;;;;;;;3.38;1.73;;;;;;;;;;5119684;27;20042;-78
2022/06/29 04:15:01;;;;;;;5.97;1.70;;;;;;;;;;5136528;27;20038;-78
2022/06/29 04:17:26;;;;;;;6.32;1.55;;;;;;;;;;5136369;27;20089;-78
2022/06/29 04:19:52;;;;;;;4.07;1.90;;;;;;;;;;5119389;27;20054;-79
2022/06/29 04:22:18;;;;;;;2.67;1.90;;;;;;;;;;5138702;27;20039;-79
2022/06/29 04:24:46;;;;;;;5.95;1.77;;;;;;;;;;5121240;27;20035;-79
2022/06/29 04:27:13;;;;;;;2.65;1.73;;;;;;;;;;5121296;27;20454;-80
2022/06/29 04:29:39;;;;;;;2.92;1.55;;;;;;;;;;5139918;27;20548;-79
2022/06/29 04:32:05;;;;;;;6.03;1.63;;;;;;;;;;5138314;27;20035;-79
2022/06/29 04:34:32;;;;;;;5.03;1.90;;;;;;;;;;5135754;27;20130;-79
2022/06/29 04:36:57;;;;;;;3.47;1.90;;;;;;;;;;5101439;28;20131;-80
2022/06/29 04:39:23;;;;;;;1.95;1.58;;;;;;;;;;5119849;28;20071;-79
2022/06/29 04:41:52;;;;;;;9.52;3.85;;;;;;;;;;5100860;28;20445;-80
2022/06/29 04:44:18;;;;;;;4.18;1.70;;;;;;;;;;5100541;28;20520;-78
2022/06/29 04:46:44;;;;;;;5.88;2.13;;;;;;;;;;5116526;28;20108;-78
2022/06/29 04:49:10;;;;;;;4.22;1.70;;;;;;;;;;5116381;28;20024;-78
2022/06/29 04:51:35;;;;;;;3.05;1.75;;;;;;;;;;5098354;28;20477;-78
2022/06/29 04:54:02;;;;;;;2.97;1.50;;;;;;;;;;5115272;28;20039;-78
2022/06/29 04:56:30;;;;;;;2.88;1.60;;;;;;;;;;5114778;28;20042;-78
2022/06/29 04:58:57;;;;;;;4.75;1.75;;;;;;;;;;5116361;27;20451;-79
2022/06/29 05:01:25;;;;;;;3.20;1.88;;;;;;;;;;5118363;27;20027;-78
2022/06/29 05:03:51;;;;;;;7.57;1.77;;;;;;;;;;5118505;27;20042;-78
2022/06/29 05:06:17;;;;;;;3.63;1.70;;;;;;;;;;5118419;27;20062;-78
2022/06/29 05:08:42;;;;;;;9.40;1.92;;;;;;;;;;5118680;27;20459;-79
2022/06/29 05:11:09;;;;;;;4.93;1.80;;;;;;;;;;5150654;27;20038;-79
2022/06/29 05:13:35;;;;;;;3.10;1.83;;;;;;;;;;5139357;27;20129;-79
2022/06/29 05:16:01;;;;;;;5.05;1.80;;;;;;;;;;5156288;27;20459;-78
2022/06/29 05:18:28;;;;;;;2.53;1.55;;;;;;;;;;5138884;27;20041;-80
2022/06/29 05:20:54;;;;;;;5.20;1.80;;;;;;;;;;5141718;27;20070;-79
2022/06/29 05:23:20;;;;;;;5.03;1.65;;;;;;;;;;5162685;27;20900;-81
2022/06/29 05:25:47;;;;;;;4.70;1.67;;;;;;;;;;5161268;27;20075;-81
2022/06/29 05:28:13;;;;;;;3.08;1.52;;;;;;;;;;5142944;27;20023;-79
2022/06/29 05:30:42;;;;;;;4.65;2.00;;;;;;;;;;5158356;27;20468;-81
2022/06/29 05:33:08;;;;;;;5.97;1.90;;;;;;;;;;5158646;27;20122;-80
2022/06/29 05:35:33;;;;;;;5.05;1.75;;;;;;;;;;5144456;27;20041;-79
2022/06/29 05:38:04;;;;;;;4.28;2.15;;;;;;;;;;5138708;27;20232;-79
2022/06/29 05:40:34;;;;;;;8.85;2.05;;;;;;;;;;5119536;27;20484;-79
2022/06/29 05:43:01;;;;;;;2.33;1.70;;;;;;;;;;5120685;27;20121;-79
2022/06/29 05:45:27;;;;;;;4.05;1.60;;;;;;;;;;5120621;27;20034;-83
2022/06/29 05:47:53;;;;;;;3.72;1.58;;;;;;;;;;5138380;27;20031;-83
2022/06/29 05:50:21;;;;;;;2.88;1.50;;;;;;;;;;5137596;27;20620;-83
2022/06/29 05:52:47;;;;;;;3.83;2.53;;;;;;;;;;5120297;28;20095;-80
2022/06/29 05:55:12;;;;;;;8.18;1.77;;;;;;;;;;5119973;28;20094;-83
2022/06/29 05:57:38;;;;;;;11.20;2.10;;;;;;;;;;5120730;28;20453;-83
2022/06/29 06:00:04;;;;;;;3.00;1.40;;;;;;;;;;5120208;28;20035;-83
2022/06/29 06:02:38;;;;;;;2.15;1.35;;;;;;;;;;5137101;28;20039;-81
2022/06/29 06:05:05;;;;;;;4.18;1.85;;;;;;;;;;5111586;28;20099;-83
2022/06/29 06:07:30;;;;;;;3.47;1.40;;;;;;;;;;5118305;28;20080;-82
2022/06/29 06:09:57;;;;;;;7.38;1.60;;;;;;;;;;5098931;28;20024;-79
2022/06/29 06:12:22;;;;;;;7.25;1.55;;;;;;;;;;5131263;28;20035;-85
2022/06/29 06:14:48;;;;;;;5.20;1.40;;;;;;;;;;5135294;28;20437;-85
2022/06/29 06:17:13;;;;;;;6.38;1.58;;;;;;;;;;5119364;28;20122;-84
2022/06/29 06:19:38;;;;;;;5.43;1.10;;;;;;;;;;5119361;28;20511;-84
2022/06/29 06:22:04;;;;;;;3.40;1.25;;;;;;;;;;5138528;27;20488;-80
2022/06/29 06:24:29;;;;;;;3.45;1.50;;;;;;;;;;5119548;28;20034;-84
2022/06/29 06:26:54;;;;;;;9.98;1.67;;;;;;;;;;5137774;27;20474;-81
2022/06/29 06:29:20;;;;;;;4.10;1.13;;;;;;;;;;5136809;28;20043;-81
2022/06/29 06:31:46;;;;;;;4.43;2.00;;;;;;;;;;5118026;28;20039;-83
2022/06/29 06:34:11;;;;;;;3.15;1.70;;;;;;;;;;5123505;27;20066;-84
2022/06/29 06:36:36;;;;;;;7.70;2.20;;;;;;;;;;5124710;28;20104;-84
2022/06/29 06:39:02;;;;;;;10.23;1.95;;;;;;;;;;5122189;28;20080;-81
2022/06/29 06:41:27;;;;;;;4.97;2.00;;;;;;;;;;5116241;28;20027;-86
2022/06/29 06:43:57;;;;;;;4.93;2.45;;;;;;;;;;5118466;28;20038;-83
2022/06/29 06:46:24;;;;;;;2.45;1.90;;;;;;;;;;5136271;27;20031;-80
2022/06/29 06:48:50;;;;;;;4.28;2.28;;;;;;;;;;5135424;27;20057;-82
2022/06/29 06:51:20;;;;;;;5.90;1.95;;;;;;;;;;5136698;28;20484;-82
2022/06/29 06:53:46;;;;;;;8.15;1.88;;;;;;;;;;5136056;28;20480;-79
2022/06/29 06:56:12;;;;;;;11.43;2.13;;;;;;;;;;5136116;27;20038;-80
2022/06/29 06:58:37;;;;;;;12.82;2.00;;;;;;;;;;5121593;27;20031;-79
2022/06/29 07:01:05;;;;;;;4.07;1.40;;;;;;;;;;5139513;27;20148;-81
2022/06/29 07:03:35;;;;;;;5.03;1.80;;;;;;;;;;5138613;27;20031;-81
2022/06/29 07:06:06;;;;;;;5.45;1.63;;;;;;;;;;5137979;27;20113;-80
2022/06/29 07:08:33;;;;;;;7.10;1.83;;;;;;;;;;5151169;27;20043;-81
2022/06/29 07:11:00;;;;;;;3.78;2.13;;;;;;;;;;5122678;27;20035;-80
2022/06/29 07:13:26;;;;;;;4.55;1.90;;;;;;;;;;5138695;27;20035;-80
2022/06/29 07:15:52;;;;;;;6.70;2.00;;;;;;;;;;5139505;27;20027;-84
2022/06/29 07:18:18;;;;;;;9.85;2.28;;;;;;;;;;5139823;27;20087;-82
2022/06/29 07:20:43;;;;;;;2.33;1.48;;;;;;;;;;5123340;27;20034;-84
2022/06/29 07:23:11;;;;;;;1.73;1.60;;;;;;;;;;5127575;27;20035;-81
2022/06/29 07:25:37;;;;;;;2.13;1.73;;;;;;;;;;5123266;27;20035;-82
2022/06/29 07:28:05;;;;;;;5.35;1.73;;;;;;;;;;5121646;27;20027;-82
2022/06/29 07:30:31;;;;;;;8.30;1.70;;;;;;;;;;5140186;27;20035;-83
2022/06/29 07:32:56;;;;;;;6.47;2.30;;;;;;;;;;5139233;27;20080;-83
2022/06/29 07:35:23;;;;;;;3.20;2.00;;;;;;;;;;5118490;27;20374;-81
2022/06/29 07:37:50;;;;;;;3.05;1.90;;;;;;;;;;5100419;28;20046;-84
2022/06/29 07:40:16;;;;;;;4.47;1.73;;;;;;;;;;5118177;28;20031;-81
2022/06/29 07:42:42;;;;;;;3.20;1.70;;;;;;;;;;5116561;28;20032;-80
2022/06/29 07:45:08;;;;;;;3.90;1.60;;;;;;;;;;5099777;28;20362;-80
2022/06/29 07:47:34;;;;;;;2.17;1.63;;;;;;;;;;5100352;28;20042;-79
2022/06/29 07:50:01;;;;;;;3.65;1.70;;;;;;;;;;5116742;28;20028;-77
2022/06/29 07:52:27;;;;;;;3.17;1.60;;;;;;;;;;5116677;28;20468;-79
2022/06/29 07:54:53;;;;;;;6.43;1.70;;;;;;;;;;5116068;28;20035;-80
2022/06/29 07:57:19;;;;;;;6.22;1.70;;;;;;;;;;5116375;28;20031;-78
2022/06/29 07:59:46;;;;;;;2.85;1.60;;;;;;;;;;5102754;28;20114;-81
2022/06/29 08:02:12;;;;;;;4.15;1.67;;;;;;;;;;5098586;28;20078;-77
2022/06/29 08:04:39;;;;;;;8.65;3.15;;;;;;;;;;5110144;27;20035;-79
2022/06/29 08:07:05;;;;;;;2.63;1.70;;;;;;;;;;5137961;27;20437;-79
2022/06/29 08:09:32;;;;;;;3.35;1.88;;;;;;;;;;5136576;27;20031;-79
2022/06/29 08:11:57;;;;;;;2.17;1.80;;;;;;;;;;5130975;27;20038;-79
2022/06/29 08:14:22;;;;;;;4.53;1.70;;;;;;;;;;5096841;28;20035;-78
2022/06/29 08:16:48;;;;;;;3.92;1.80;;;;;;;;;;5116463;28;20043;-79
2022/06/29 08:19:15;;;;;;;3.97;2.05;;;;;;;;;;5116213;28;20036;-78
2022/06/29 08:21:40;;;;;;;2.05;1.70;;;;;;;;;;5118427;28;20132;-80
2022/06/29 08:24:06;;;;;;;2.95;1.88;;;;;;;;;;5115869;28;20478;-81
2022/06/29 08:26:31;;;;;;;5.78;2.10;;;;;;;;;;5116567;28;20089;-81
2022/06/29 08:28:58;;;;;;;3.67;1.80;;;;;;;;;;5118273;28;20032;-82
2022/06/29 08:31:24;;;;;;;4.63;1.77;;;;;;;;;;5117334;28;20059;-82
2022/06/29 08:33:53;;;;;;;4.28;2.03;;;;;;;;;;5100108;28;20126;-81
2022/06/29 08:36:18;;;;;;;5.55;1.80;;;;;;;;;;5137454;27;20050;-81
2022/06/29 08:38:44;;;;;;;4.50;1.83;;;;;;;;;;5159781;27;20038;-81
2022/06/29 08:41:12;;;;;;;2.70;2.28;;;;;;;;;;5141189;27;20121;-81
2022/06/29 08:43:37;;;;;;;3.85;1.77;;;;;;;;;;5157967;27;20117;-80
2022/06/29 08:46:05;;;;;;;6.28;1.95;;;;;;;;;;5157007;27;20488;-79
2022/06/29 08:48:30;;;;;;;5.35;1.98;;;;;;;;;;5141354;27;20094;-80
2022/06/29 08:50:57;;;;;;;5.75;1.80;;;;;;;;;;5159097;27;20089;-79
2022/06/29 08:53:23;;;;;;;2.22;1.67;;;;;;;;;;5142746;27;20041;-82
2022/06/29 08:55:51;;;;;;;4.28;2.05;;;;;;;;;;5159966;27;20030;-81
2022/06/29 08:58:22;;;;;;;8.93;1.90;;;;;;;;;;5159481;27;20400;-81
2022/06/29 09:00:49;;;;;;;4.43;2.13;;;;;;;;;;5161577;27;20566;-81
2022/06/29 09:03:17;;;;;;;3.78;1.88;;;;;;;;;;5159204;27;20034;-81
2022/06/29 09:05:54;;;;;;;7.30;1.70;;;;;;;;;;5128279;27;20448;-81
2022/06/29 09:08:20;;;;;;;4.20;2.13;;;;;;;;;;5139039;27;20035;-80
2022/06/29 09:10:46;;;;;;;5.68;1.67;;;;;;;;;;5125720;27;20121;-80
2022/06/29 09:13:22;;;;;;;6.40;2.03;;;;;;;;;;5160445;27;20089;-80
2022/06/29 09:15:56;;;;;;;6.43;1.90;;;;;;;;;;5159107;27;20073;-80
2022/06/29 09:18:28;;;;;;;5.60;1.67;;;;;;;;;;5158894;27;20467;-80
2022/06/29 09:20:58;;;;;;;6.40;2.00;;;;;;;;;;5158653;27;20092;-79
2022/06/29 09:23:25;;;;;;;3.65;1.83;;;;;;;;;;5141727;27;20054;-80
2022/06/29 09:25:53;;;;;;;4.07;2.05;;;;;;;;;;5160077;27;20030;-79
2022/06/29 09:28:34;;;;;;;6.15;2.10;;;;;;;;;;5140984;27;20040;-79
2022/06/29 09:31:00;;;;;;;2.72;1.90;;;;;;;;;;5157567;27;20035;-78
2022/06/29 09:33:28;;;;;;;3.65;2.03;;;;;;;;;;5141233;27;20063;-81
2022/06/29 09:36:06;;;;;;;7.45;2.40;;;;;;;;;;5158332;27;20630;-81
2022/06/29 09:38:33;;;;;;;6.95;1.85;;;;;;;;;;5159209;27;20053;-81
2022/06/29 09:41:19;;;;;;;3.88;1.67;;;;;;;;;;5141932;27;20042;-81
2022/06/29 09:43:45;;;;;;;3.43;1.70;;;;;;;;;;5159286;27;20039;-81
2022/06/29 09:46:15;;;;;;;7.85;2.17;;;;;;;;;;5158539;27;20035;-81
2022/06/29 09:48:42;;;;;;;3.83;1.70;;;;;;;;;;5141511;27;20026;-81
2022/06/29 09:54:06;;;;;;;6.55;1.98;;;;;;;;;;5157185;27;20035;-80
2022/06/29 09:56:32;;;;;;;3.35;1.80;;;;;;;;;;5139675;27;20035;-81
2022/06/29 09:58:59;;;;;;;7.68;2.45;;;;;;;;;;5158580;27;20065;-79
2022/06/29 10:04:14;;;;;;;8.25;2.00;;;;;;;;;;5157248;27;20069;-79
2022/06/29 10:06:40;;;;;;;3.22;1.73;;;;;;;;;;5135870;28;20137;-80
2022/06/29 10:09:06;;;;;;;15.23;1.98;;;;;;;;;;5118675;28;20030;-80
2022/06/29 10:14:48;;;;;;;7.10;1.70;;;;;;;;;;5135931;28;20561;-80
2022/06/29 10:17:28;;;;;;;8.05;1.60;;;;;;;;;;5120263;28;20031;-84
2022/06/29 10:20:19;;;;;;;8.02;1.70;;;;;;;;;;5119512;28;20039;-82
2022/06/29 10:22:45;;;;;;;7.70;1.63;;;;;;;;;;5136930;27;20047;-83
2022/06/29 10:25:16;;;;;;;4.47;1.77;;;;;;;;;;5119157;28;20019;-83
2022/06/29 10:28:13;;;;;;;1.92;1.75;;;;;;;;;;5136664;28;20031;-83
2022/06/29 10:30:38;;;;;;;10.88;2.35;;;;;;;;;;5119253;27;20058;-83
2022/06/29 10:33:36;;;;;;;8.65;1.65;;;;;;;;;;5123150;27;20047;-83
2022/06/29 10:36:08;;;;;;;7.60;1.90;;;;;;;;;;5123718;27;20050;-84
2022/06/29 10:39:03;;;;;;;2.85;1.88;;;;;;;;;;5127008;27;20079;-80
2022/06/29 10:44:59;;;;;;;4.38;2.20;;;;;;;;;;5140791;27;20031;-82
2022/06/29 10:47:26;;;;;;;7.18;2.20;;;;;;;;;;5139934;27;20031;-78
2022/06/29 10:50:19;;;;;;;8.70;1.92;;;;;;;;;;5138958;27;20066;-78
2022/06/29 10:52:44;;;;;;;2.13;1.85;;;;;;;;;;5122015;27;20504;-78
2022/06/29 10:55:11;;;;;;;4.28;1.77;;;;;;;;;;5121369;27;20050;-78
2022/06/29 10:57:39;;;;;;;4.93;2.25;;;;;;;;;;5138374;27;20035;-78
2022/06/29 11:00:11;;;;;;;8.63;1.80;;;;;;;;;;5138697;27;20117;-78
2022/06/29 11:02:37;;;;;;;4.15;1.70;;;;;;;;;;5121340;27;20031;-78
2022/06/29 11:05:04;;;;;;;10.73;2.00;;;;;;;;;;5139180;27;20096;-78
2022/06/29 11:12:58;;;;;;;7.95;1.77;;;;;;;;;;5146317;27;20034;-78
2022/06/29 11:15:48;;;;;;;4.50;2.47;;;;;;;;;;5142309;27;20030;-77
2022/06/29 11:18:17;;;;;;;7.47;1.67;;;;;;;;;;5159619;27;20034;-78
2022/06/29 11:20:49;;;;;;;3.13;2.05;;;;;;;;;;5141752;27;20026;-78
2022/06/29 11:23:18;;;;;;;6.10;1.80;;;;;;;;;;5141162;27;20526;-78
2022/06/29 11:25:54;;;;;;;2.95;1.88;;;;;;;;;;5158312;27;20480;-78
2022/06/29 11:28:32;;;;;;;3.78;1.85;;;;;;;;;;5158844;27;20042;-78
2022/06/29 11:30:57;;;;;;;6.00;1.80;;;;;;;;;;5140410;27;20037;-76
2022/06/29 11:33:33;;;;;;;8.57;1.90;;;;;;;;;;5156305;27;20487;-76
2022/06/29 11:36:21;;;;;;;4.60;2.45;;;;;;;;;;5139099;27;20118;-76
2022/06/29 11:39:04;;;;;;;3.30;1.92;;;;;;;;;;5135393;27;20046;-76
2022/06/29 11:44:27;;;;;;;3.97;1.77;;;;;;;;;;5134647;27;20036;-76
2022/06/29 11:46:53;;;;;;;1.83;1.60;;;;;;;;;;5117964;27;20035;-76
2022/06/29 11:49:38;;;;;;;8.15;1.77;;;;;;;;;;5135040;27;20023;-77
2022/06/29 11:52:05;;;;;;;2.42;1.65;;;;;;;;;;5135344;27;20038;-76
2022/06/29 11:54:40;;;;;;;7.40;1.58;;;;;;;;;;5118854;27;20035;-77
2022/06/29 11:57:09;;;;;;;3.72;2.17;;;;;;;;;;5138175;27;20039;-81
2022/06/29 11:59:35;;;;;;;3.38;1.60;;;;;;;;;;5121611;27;20035;-79
2022/06/29 12:02:01;;;;;;;7.57;1.70;;;;;;;;;;5121121;27;20042;-79
2022/06/29 12:04:34;;;;;;;2.97;1.65;;;;;;;;;;5118947;27;20038;-78
2022/06/29 12:07:08;;;;;;;4.75;1.70;;;;;;;;;;5135386;27;20480;-77
2022/06/29 12:09:37;;;;;;;6.90;1.70;;;;;;;;;;5136116;27;20035;-77
2022/06/29 12:12:03;;;;;;;6.57;1.58;;;;;;;;;;5127836;27;20059;-77
2022/06/29 12:14:29;;;;;;;7.18;1.95;;;;;;;;;;5115571;28;20040;-78
2022/06/29 12:16:55;;;;;;;5.88;1.70;;;;;;;;;;5116442;28;20040;-78
2022/06/29 12:19:22;;;;;;;10.02;2.05;;;;;;;;;;5117496;28;20069;-78
2022/06/29 12:21:48;;;;;;;3.20;1.83;;;;;;;;;;5116872;28;20059;-78
2022/06/29 12:24:15;;;;;;;7.88;1.88;;;;;;;;;;5099979;28;20032;-78
2022/06/29 12:26:42;;;;;;;3.35;1.60;;;;;;;;;;5116477;28;20031;-78
2022/06/29 12:29:08;;;;;;;6.15;2.00;;;;;;;;;;5116483;28;20122;-78
2022/06/29 12:31:36;;;;;;;5.88;1.67;;;;;;;;;;5116646;28;20066;-78
2022/06/29 12:34:02;;;;;;;3.35;1.70;;;;;;;;;;5116958;28;20027;-78
2022/06/29 12:36:30;;;;;;;6.10;1.80;;;;;;;;;;5118102;27;20028;-79
2022/06/29 12:38:58;;;;;;;2.10;1.42;;;;;;;;;;5114438;28;20041;-78
2022/06/29 12:41:24;;;;;;;6.68;1.85;;;;;;;;;;5116511;28;20074;-78
2022/06/29 12:43:50;;;;;;;4.30;1.63;;;;;;;;;;5114773;28;20024;-78
2022/06/29 12:46:17;;;;;;;3.50;1.30;;;;;;;;;;5096034;28;20184;-77
2022/06/29 12:48:43;;;;;;;2.70;1.60;;;;;;;;;;5113356;28;20038;-78
2022/06/29 12:51:09;;;;;;;1.50;1.40;;;;;;;;;;5114749;28;20031;-78
2022/06/29 12:53:36;;;;;;;6.78;1.90;;;;;;;;;;5113316;28;20049;-77
2022/06/29 12:56:03;;;;;;;11.77;1.77;;;;;;;;;;5112331;28;20046;-77
2022/06/29 12:58:31;;;;;;;2.92;1.70;;;;;;;;;;5096451;28;20035;-77
2022/06/29 13:00:56;;;;;;;2.92;1.45;;;;;;;;;;5111686;28;20088;-77
2022/06/29 13:03:22;;;;;;;2.83;2.08;;;;;;;;;;5113581;28;20040;-77
2022/06/29 13:05:48;;;;;;;8.13;1.80;;;;;;;;;;5126381;27;20038;-78
2022/06/29 13:08:15;;;;;;;3.03;1.65;;;;;;;;;;5116038;27;20503;-77
2022/06/29 13:10:41;;;;;;;5.10;1.40;;;;;;;;;;5132094;27;20041;-77
2022/06/29 13:13:08;;;;;;;11.43;1.90;;;;;;;;;;5113140;28;20028;-77
2022/06/29 13:15:33;;;;;;;4.75;1.30;;;;;;;;;;5112976;28;20047;-77
2022/06/29 13:18:02;;;;;;;2.53;1.33;;;;;;;;;;5114050;28;20080;-77
2022/06/29 13:20:29;;;;;;;4.90;1.35;;;;;;;;;;5114107;28;20396;-77
2022/06/29 13:22:54;;;;;;;3.40;1.15;;;;;;;;;;5095567;28;20043;-77
2022/06/29 13:25:24;;;;;;;5.55;1.70;;;;;;;;;;5112736;28;20115;-77
2022/06/29 13:27:49;;;;;;;5.10;1.42;;;;;;;;;;5112658;28;20405;-77
2022/06/29 13:30:16;;;;;;;2.85;1.40;;;;;;;;;;5112682;28;20040;-77
2022/06/29 13:32:41;;;;;;;2.90;1.50;;;;;;;;;;5112805;28;20032;-77
2022/06/29 13:35:07;;;;;;;8.90;1.40;;;;;;;;;;5113753;28;20518;-77
2022/06/29 13:37:33;;;;;;;4.97;1.27;;;;;;;;;;5112244;27;20044;-77
2022/06/29 13:39:58;;;;;;;2.90;1.40;;;;;;;;;;5114000;28;20035;-77
2022/06/29 13:42:25;;;;;;;7.30;1.30;;;;;;;;;;5113362;28;20028;-77
2022/06/29 13:44:53;;;;;;;2.90;1.00;;;;;;;;;;5113830;28;20044;-77
2022/06/29 13:47:19;;;;;;;1.55;1.30;;;;;;;;;;5112611;28;20473;-77
2022/06/29 13:49:46;;;;;;;2.50;1.20;;;;;;;;;;5112769;28;20019;-77
2022/06/29 13:52:11;;;;;;;2.80;1.35;;;;;;;;;;5114415;28;20042;-79
2022/06/29 13:54:40;;;;;;;5.75;1.63;;;;;;;;;;5119679;28;20031;-77
2022/06/29 13:57:06;;;;;;;2.47;1.42;;;;;;;;;;5095494;28;20027;-77
2022/06/29 13:59:33;;;;;;;1.73;1.27;;;;;;;;;;5113804;28;20036;-77
2022/06/29 14:02:01;;;;;;;6.45;1.80;;;;;;;;;;5095279;28;20122;-77
2022/06/29 14:04:26;;;;;;;3.90;1.58;;;;;;;;;;5113758;28;20040;-77
2022/06/29 14:06:53;;;;;;;6.10;2.15;;;;;;;;;;5111589;27;20031;-77
2022/06/29 14:09:18;;;;;;;8.10;2.00;;;;;;;;;;5137439;27;20035;-77
2022/06/29 14:11:44;;;;;;;3.42;2.03;;;;;;;;;;5138410;27;20030;-77
2022/06/29 14:14:09;;;;;;;2.92;1.80;;;;;;;;;;5136803;27;20027;-77
2022/06/29 14:16:34;;;;;;;3.58;1.90;;;;;;;;;;5138425;27;20585;-77
2022/06/29 14:19:00;;;;;;;1.92;1.80;;;;;;;;;;5119798;27;20564;-77
2022/06/29 14:21:25;;;;;;;4.22;1.60;;;;;;;;;;5120387;27;20042;-77
2022/06/29 14:23:53;;;;;;;5.55;1.80;;;;;;;;;;5137035;27;20107;-77
2022/06/29 14:26:19;;;;;;;2.65;1.77;;;;;;;;;;5120077;27;20512;-77
2022/06/29 14:28:46;;;;;;;6.30;2.50;;;;;;;;;;5138273;27;20031;-77
2022/06/29 14:31:12;;;;;;;2.80;2.20;;;;;;;;;;5120065;27;20035;-77
2022/06/29 14:33:37;;;;;;;4.50;1.67;;;;;;;;;;5137852;27;20042;-77
2022/06/29 14:36:05;;;;;;;2.88;2.20;;;;;;;;;;5137252;27;20038;-77
2022/06/29 14:38:31;;;;;;;3.60;1.98;;;;;;;;;;5119043;27;20054;-77
2022/06/29 14:40:58;;;;;;;3.65;2.13;;;;;;;;;;5137841;27;20396;-77
2022/06/29 14:43:24;;;;;;;5.10;2.08;;;;;;;;;;5136619;27;20146;-77
2022/06/29 14:45:52;;;;;;;2.30;1.98;;;;;;;;;;5136718;27;20043;-77
2022/06/29 14:48:18;;;;;;;4.22;1.73;;;;;;;;;;5136216;27;20037;-77
2022/06/29 14:50:44;;;;;;;6.78;3.03;;;;;;;;;;5119038;27;20031;-77
2022/06/29 14:53:10;;;;;;;5.00;1.70;;;;;;;;;;5136742;27;20050;-77
2022/06/29 14:55:35;;;;;;;4.97;1.80;;;;;;;;;;5137703;27;20028;-77
2022/06/29 14:58:00;;;;;;;9.38;2.22;;;;;;;;;;5119406;27;20091;-77
2022/06/29 15:00:26;;;;;;;6.03;2.15;;;;;;;;;;5136285;27;20046;-77
2022/06/29 15:02:52;;;;;;;6.25;2.20;;;;;;;;;;5136091;27;20039;-77
2022/06/29 15:05:17;;;;;;;4.88;2.10;;;;;;;;;;5136618;27;20072;-77
2022/06/29 15:07:42;;;;;;;5.70;1.90;;;;;;;;;;5120037;27;20035;-77